Time;durP1;ratioP1;P1;durP2;ratioP2;P2;SDS_P1;SDS_P2;PMS_P1;PMS_P2;Temp;Humidity;BMP_temperature;BMP_pressure;BME280_temperature;BME280_humidity;BME280_pressure;Samples;Min_cycle;Max_cycle;Signal;HPM_P1;HPM_P2
2021/07/31 00:00:45;;;;;;;2.00;1.10;;;;;;;18.80;66.82;99739.09;5044902;28;20250;-76
2021/07/31 00:03:11;;;;;;;2.93;1.27;;;;;;;18.77;66.54;99757.78;5044785;28;20236;-76
2021/07/31 00:05:38;;;;;;;1.30;1.20;;;;;;;18.89;66.54;99760.59;5044567;28;20258;-77
2021/07/31 00:08:05;;;;;;;1.60;1.43;;;;;;;18.94;66.39;99764.66;5044461;28;20255;-77
2021/07/31 00:10:33;;;;;;;2.00;1.50;;;;;;;18.99;66.47;99761.72;5044425;28;20219;-76
2021/07/31 00:12:59;;;;;;;1.30;1.20;;;;;;;19.03;66.23;99757.94;5043226;28;20225;-77
2021/07/31 00:15:25;;;;;;;2.50;1.40;;;;;;;19.06;66.18;99773.59;5043682;28;20213;-77
2021/07/31 00:17:52;;;;;;;5.00;1.60;;;;;;;19.04;66.07;99773.69;5044675;28;20248;-76
2021/07/31 00:20:18;;;;;;;2.40;1.10;;;;;;;19.07;66.04;99769.16;5043849;28;20209;-77
2021/07/31 00:22:45;;;;;;;1.93;1.13;;;;;;;19.10;65.73;99785.66;5043157;28;20232;-77
2021/07/31 00:25:11;;;;;;;1.60;1.50;;;;;;;19.04;65.78;99776.34;5043699;28;20274;-77
2021/07/31 00:27:39;;;;;;;3.53;1.47;;;;;;;19.02;66.53;99766.81;5044170;28;20201;-77
2021/07/31 00:30:07;;;;;;;3.90;1.33;;;;;;;19.05;66.20;99766.63;5047892;28;20251;-79
2021/07/31 00:32:33;;;;;;;1.57;1.10;;;;;;;19.02;66.21;99770.28;5045779;28;20235;-82
2021/07/31 00:34:59;;;;;;;1.40;1.30;;;;;;;18.99;66.31;99759.09;5046443;28;20206;-79
2021/07/31 00:37:26;;;;;;;2.60;1.37;;;;;;;18.94;66.45;99747.94;5044466;28;20293;-77
2021/07/31 00:39:53;;;;;;;1.87;1.60;;;;;;;18.88;66.81;99741.25;5044152;28;20227;-77
2021/07/31 00:42:20;;;;;;;1.37;1.20;;;;;;;18.90;66.17;99725.28;5042322;28;20753;-77
2021/07/31 00:44:48;;;;;;;2.33;1.50;;;;;;;18.84;67.11;99727.38;5044118;28;20218;-77
2021/07/31 00:47:15;;;;;;;1.53;1.20;;;;;;;18.83;66.88;99733.63;5043863;28;20212;-76
2021/07/31 00:49:42;;;;;;;1.40;1.27;;;;;;;18.85;67.21;99720.31;5043456;28;20263;-76
2021/07/31 00:52:09;;;;;;;1.50;1.20;;;;;;;18.83;67.32;99730.16;5043251;28;21132;-76
2021/07/31 00:54:36;;;;;;;2.10;1.30;;;;;;;18.79;67.07;99736.50;5043325;28;20671;-77
2021/07/31 00:57:03;;;;;;;2.70;1.40;;;;;;;18.78;67.36;99717.16;5043751;28;20225;-77
2021/07/31 00:59:29;;;;;;;2.50;1.20;;;;;;;18.70;68.31;99682.44;5042786;28;21356;-77
2021/07/31 01:01:57;;;;;;;2.30;1.50;;;;;;;18.71;68.97;99675.34;5043520;28;20228;-77
2021/07/31 01:04:24;;;;;;;2.60;1.40;;;;;;;18.64;67.68;99701.34;5044391;28;21180;-79
2021/07/31 01:06:50;;;;;;;2.20;1.10;;;;;;;18.62;68.24;99688.22;5046613;28;20200;-79
2021/07/31 01:09:17;;;;;;;1.40;1.30;;;;;;;18.59;68.41;99691.09;5046597;28;20631;-80
2021/07/31 01:11:43;;;;;;;2.37;1.40;;;;;;;18.59;68.03;99700.78;5045364;28;20277;-81
2021/07/31 01:14:10;;;;;;;1.43;1.33;;;;;;;18.58;67.75;99715.81;5045313;28;20310;-81
2021/07/31 01:16:36;;;;;;;1.77;1.10;;;;;;;18.49;66.82;99740.16;5045914;28;20261;-80
2021/07/31 01:19:04;;;;;;;1.63;1.20;;;;;;;18.48;67.23;99729.72;5045051;28;20262;-78
2021/07/31 01:21:38;;;;;;;1.13;1.00;;;;;;;18.44;67.11;99723.78;5045294;28;20233;-78
2021/07/31 01:24:06;;;;;;;1.60;1.30;;;;;;;18.40;67.37;99728.41;5044895;28;20205;-78
2021/07/31 01:26:37;;;;;;;1.20;1.10;;;;;;;18.39;67.31;99733.75;5044478;28;20213;-78
2021/07/31 01:29:05;;;;;;;1.80;1.47;;;;;;;18.35;67.85;99725.19;5045581;28;20208;-78
2021/07/31 01:31:32;;;;;;;2.53;1.40;;;;;;;18.25;67.28;99717.00;5044633;28;20898;-78
2021/07/31 01:33:59;;;;;;;5.33;1.60;;;;;;;18.23;66.46;99766.41;5042526;28;20624;-76
2021/07/31 01:36:25;;;;;;;1.77;1.33;;;;;;;17.96;65.05;99828.88;5044142;28;20212;-76
2021/07/31 01:38:53;;;;;;;1.87;1.00;;;;;;;18.05;65.56;99810.66;5044011;28;20254;-78
2021/07/31 01:41:20;;;;;;;3.50;1.23;;;;;;;18.10;65.01;99825.41;5043719;28;20671;-78
2021/07/31 01:43:46;;;;;;;2.40;1.17;;;;;;;17.96;64.63;99844.72;5044161;28;20213;-81
2021/07/31 01:46:13;;;;;;;2.43;1.63;;;;;;;17.98;64.68;99838.38;5043985;28;20672;-77
2021/07/31 01:48:39;;;;;;;2.10;1.10;;;;;;;17.89;64.37;99851.28;5042863;28;20295;-76
2021/07/31 01:51:06;;;;;;;2.53;1.20;;;;;;;17.85;64.63;99848.81;5043474;28;20774;-76
2021/07/31 01:53:32;;;;;;;2.03;1.10;;;;;;;17.87;65.01;99830.25;5046177;28;20242;-76
2021/07/31 01:56:00;;;;;;;1.63;0.80;;;;;;;17.90;64.79;99834.47;5047839;28;20208;-78
2021/07/31 01:58:27;;;;;;;2.73;1.40;;;;;;;17.85;64.98;99826.84;5048348;28;20303;-79
2021/07/31 02:00:54;;;;;;;2.67;1.20;;;;;;;17.82;64.73;99825.22;5048309;28;20207;-79
2021/07/31 02:03:20;;;;;;;4.67;1.10;;;;;;;17.83;65.24;99811.09;5048281;28;20231;-77
2021/07/31 02:05:47;;;;;;;5.93;1.10;;;;;;;17.84;65.00;99826.00;5047793;28;20215;-76
2021/07/31 02:08:14;;;;;;;1.37;1.27;;;;;;;17.83;64.60;99823.41;5048666;28;20204;-76
2021/07/31 02:10:40;;;;;;;4.00;1.20;;;;;;;17.78;65.09;99801.69;5046793;28;20238;-78
2021/07/31 02:13:08;;;;;;;1.80;1.00;;;;;;;17.75;64.38;99815.94;5047563;28;20252;-78
2021/07/31 02:15:34;;;;;;;3.60;1.10;;;;;;;17.77;64.21;99829.91;5047903;28;20212;-76
2021/07/31 02:18:01;;;;;;;2.30;1.10;;;;;;;17.72;64.29;99818.78;5047863;28;20221;-78
2021/07/31 02:20:27;;;;;;;3.17;1.10;;;;;;;17.65;63.96;99820.06;5048771;28;20207;-76
2021/07/31 02:22:53;;;;;;;2.90;1.17;;;;;;;17.63;64.06;99827.22;5047363;28;20229;-76
2021/07/31 02:25:20;;;;;;;1.50;0.90;;;;;;;17.56;63.52;99844.34;5052861;28;20273;-77
2021/07/31 02:27:46;;;;;;;2.10;1.57;;;;;;;17.48;63.69;99839.50;5050701;28;20208;-77
2021/07/31 02:30:14;;;;;;;3.60;1.10;;;;;;;17.54;64.90;99798.72;5051522;28;20289;-77
2021/07/31 02:32:41;;;;;;;1.40;1.00;;;;;;;17.52;63.89;99813.78;5050868;28;20297;-76
2021/07/31 02:35:09;;;;;;;1.57;0.90;;;;;;;17.50;64.32;99789.28;5052439;28;20263;-77
2021/07/31 02:37:35;;;;;;;4.30;1.13;;;;;;;17.49;64.32;99813.97;5051180;28;20236;-77
2021/07/31 02:40:02;;;;;;;1.70;0.90;;;;;;;17.45;64.29;99803.59;5050858;28;20479;-78
2021/07/31 02:42:28;;;;;;;1.67;0.83;;;;;;;17.45;63.66;99829.97;5050572;28;20236;-76
2021/07/31 02:44:55;;;;;;;1.90;1.10;;;;;;;17.40;64.18;99802.16;5050338;28;20201;-79
2021/07/31 02:47:23;;;;;;;3.47;0.93;;;;;;;17.32;65.14;99757.75;5051151;28;20208;-76
2021/07/31 02:49:49;;;;;;;4.17;1.03;;;;;;;17.32;64.08;99807.03;5051670;28;20208;-76
2021/07/31 02:52:15;;;;;;;3.03;1.10;;;;;;;17.24;64.52;99795.13;5050554;28;20230;-77
2021/07/31 02:54:42;;;;;;;4.20;1.27;;;;;;;17.23;63.76;99830.34;5051448;28;20249;-77
2021/07/31 02:57:08;;;;;;;1.53;1.07;;;;;;;17.17;63.32;99811.41;5050660;28;20207;-76
2021/07/31 02:59:35;;;;;;;1.70;0.97;;;;;;;17.22;63.84;99823.41;5050756;28;20222;-76
2021/07/31 03:02:01;;;;;;;1.97;0.90;;;;;;;17.26;63.84;99819.63;5050472;28;20223;-78
2021/07/31 03:04:29;;;;;;;2.03;1.30;;;;;;;17.29;63.38;99828.31;5051757;28;20251;-78
2021/07/31 03:06:55;;;;;;;2.10;0.93;;;;;;;17.18;63.41;99832.38;5050993;28;20210;-77
2021/07/31 03:09:23;;;;;;;2.10;1.00;;;;;;;17.20;63.63;99819.13;5050426;28;20208;-77
2021/07/31 03:11:50;;;;;;;1.27;1.00;;;;;;;17.15;63.99;99792.16;5048236;28;20246;-76
2021/07/31 03:14:16;;;;;;;1.20;0.87;;;;;;;17.19;63.48;99796.34;5048665;28;20216;-77
2021/07/31 03:16:43;;;;;;;1.50;1.13;;;;;;;17.22;63.00;99819.88;5049482;28;20211;-76
2021/07/31 03:19:10;;;;;;;2.33;1.43;;;;;;;17.22;63.50;99798.78;5049506;28;20301;-76
2021/07/31 03:21:38;;;;;;;1.73;0.87;;;;;;;17.16;63.47;99805.25;5050443;28;20259;-76
2021/07/31 03:24:05;;;;;;;2.70;0.90;;;;;;;17.21;63.56;99800.56;5050254;28;20212;-77
2021/07/31 03:26:32;;;;;;;3.57;0.93;;;;;;;17.22;63.76;99797.00;5050537;28;21242;-77
2021/07/31 03:28:58;;;;;;;1.20;0.90;;;;;;;17.20;63.79;99800.66;5050937;28;21058;-77
2021/07/31 03:31:25;;;;;;;5.17;1.00;;;;;;;17.20;63.81;99796.22;5050159;28;20212;-77
2021/07/31 03:33:51;;;;;;;2.40;1.00;;;;;;;17.09;63.81;99803.91;5048691;28;20207;-77
2021/07/31 03:36:18;;;;;;;2.67;1.40;;;;;;;17.06;63.27;99802.28;5049949;28;20203;-76
2021/07/31 03:38:46;;;;;;;3.27;0.80;;;;;;;17.13;63.54;99792.25;5050820;28;20307;-77
2021/07/31 03:41:12;;;;;;;2.70;0.90;;;;;;;17.07;62.45;99840.91;5049455;28;20228;-77
2021/07/31 03:43:39;;;;;;;1.53;0.90;;;;;;;16.88;63.30;99811.22;5048815;28;20274;-76
2021/07/31 03:46:05;;;;;;;1.37;0.87;;;;;;;16.94;63.27;99818.78;5050254;28;20272;-76
2021/07/31 03:48:32;;;;;;;2.20;0.90;;;;;;;16.87;63.92;99789.28;5050497;28;20521;-77
2021/07/31 03:50:58;;;;;;;1.50;1.07;;;;;;;16.75;63.20;99821.56;5049948;28;20673;-77
2021/07/31 03:53:25;;;;;;;1.53;1.30;;;;;;;16.88;63.24;99811.22;5048941;28;20235;-76
2021/07/31 03:55:52;;;;;;;2.43;1.10;;;;;;;16.96;63.85;99802.88;5049780;28;20630;-78
2021/07/31 03:58:19;;;;;;;1.23;1.00;;;;;;;16.92;62.94;99825.09;5048997;28;20226;-77
2021/07/31 04:00:46;;;;;;;2.93;1.03;;;;;;;16.97;63.00;99823.91;5050158;28;20214;-78
2021/07/31 04:03:12;;;;;;;1.13;0.93;;;;;;;17.00;63.20;99815.81;5048898;28;20240;-77
2021/07/31 04:05:39;;;;;;;2.27;1.10;;;;;;;17.05;63.24;99807.66;5050091;28;20263;-77
2021/07/31 04:08:06;;;;;;;1.07;0.63;;;;;;;17.05;63.56;99797.13;5050494;28;20203;-77
2021/07/31 04:10:32;;;;;;;2.23;0.90;;;;;;;17.00;63.74;99783.31;5050678;28;20234;-77
2021/07/31 04:13:00;;;;;;;1.73;1.00;;;;;;;17.07;62.99;99811.91;5048677;28;21348;-76
2021/07/31 04:15:26;;;;;;;2.37;1.07;;;;;;;17.07;63.08;99809.25;5049383;28;20207;-77
2021/07/31 04:17:53;;;;;;;2.13;1.00;;;;;;;17.11;63.08;99812.59;5049735;28;20281;-76
2021/07/31 04:20:19;;;;;;;2.33;1.00;;;;;;;17.07;63.71;99782.91;5049686;28;20306;-78
2021/07/31 04:22:46;;;;;;;2.60;1.40;;;;;;;16.98;62.11;99836.13;5049234;28;20223;-77
2021/07/31 04:25:12;;;;;;;2.73;1.07;;;;;;;16.98;63.35;99812.41;5049717;28;20281;-76
2021/07/31 04:27:38;;;;;;;2.20;0.93;;;;;;;17.00;63.60;99812.31;5049391;28;20247;-78
2021/07/31 04:30:08;;;;;;;2.67;1.20;;;;;;;17.01;62.28;99858.88;5048443;28;20238;-78
2021/07/31 04:32:34;;;;;;;4.53;1.10;;;;;;;17.06;62.61;99830.44;5048435;28;20286;-76
2021/07/31 04:35:02;;;;;;;5.20;1.17;;;;;;;17.01;61.87;99864.97;5050235;28;20606;-77
2021/07/31 04:37:28;;;;;;;3.03;1.00;;;;;;;17.12;62.19;99845.91;5049318;28;20277;-77
2021/07/31 04:39:55;;;;;;;3.23;0.90;;;;;;;17.16;62.23;99855.34;5047893;28;20673;-77
2021/07/31 04:42:21;;;;;;;2.70;1.00;;;;;;;17.02;62.38;99848.22;5048215;28;20259;-77
2021/07/31 04:44:47;;;;;;;4.20;1.20;;;;;;;17.12;62.14;99838.00;5049015;28;20344;-76
2021/07/31 04:47:15;;;;;;;3.67;1.40;;;;;;;17.19;62.09;99843.81;5049300;28;20295;-78
2021/07/31 04:49:42;;;;;;;1.77;1.13;;;;;;;17.11;61.24;99881.16;5047959;28;20258;-78
2021/07/31 04:52:09;;;;;;;1.00;0.80;;;;;;;17.25;62.02;99857.50;5048766;28;20271;-78
2021/07/31 04:54:39;;;;;;;4.60;1.03;;;;;;;17.25;61.61;99864.56;5048603;28;20272;-77
2021/07/31 04:57:05;;;;;;;0.93;0.73;;;;;;;17.30;62.14;99846.66;5049604;28;20210;-76
2021/07/31 04:59:32;;;;;;;1.50;0.80;;;;;;;17.27;62.02;99863.53;5048793;28;20296;-78
2021/07/31 05:01:58;;;;;;;2.30;0.97;;;;;;;17.33;61.91;99853.59;5047462;28;20271;-78
2021/07/31 05:04:26;;;;;;;2.23;0.80;;;;;;;17.33;62.27;99856.22;5048922;28;20218;-78
2021/07/31 05:06:53;;;;;;;2.50;1.17;;;;;;;17.38;62.14;99843.59;5049176;28;20210;-76
2021/07/31 05:09:22;;;;;;;2.93;1.30;;;;;;;17.38;61.69;99864.72;5048678;28;20314;-77
2021/07/31 05:11:48;;;;;;;1.63;1.17;;;;;;;17.49;62.37;99846.50;5048662;28;20286;-76
2021/07/31 05:14:15;;;;;;;2.70;1.00;;;;;;;17.49;61.24;99872.03;5047178;28;20261;-77
2021/07/31 05:16:41;;;;;;;2.30;0.93;;;;;;;17.54;61.99;99855.00;5048426;28;20271;-76
2021/07/31 05:19:08;;;;;;;2.10;0.97;;;;;;;17.59;61.83;99863.50;5048331;28;20301;-78
2021/07/31 05:21:37;;;;;;;3.03;0.87;;;;;;;17.60;62.01;99846.72;5048629;28;20236;-78
2021/07/31 05:24:03;;;;;;;1.57;0.87;;;;;;;17.51;61.21;99875.44;5048052;28;20608;-77
2021/07/31 05:26:30;;;;;;;2.27;0.80;;;;;;;17.37;61.44;99887.63;5047707;28;20210;-77
2021/07/31 05:28:56;;;;;;;4.63;1.20;;;;;;;17.44;61.36;99869.63;5048756;28;21357;-76
2021/07/31 05:31:23;;;;;;;2.00;1.00;;;;;;;17.33;61.00;99896.63;5048674;28;20212;-78
2021/07/31 05:33:50;;;;;;;3.77;1.00;;;;;;;17.45;61.60;99872.19;5047322;28;20210;-78
2021/07/31 05:36:16;;;;;;;1.70;1.10;;;;;;;17.56;62.46;99839.06;5047633;28;20212;-77
2021/07/31 05:38:44;;;;;;;2.80;1.20;;;;;;;17.60;61.94;99861.69;5048088;28;20276;-77
2021/07/31 05:41:15;;;;;;;3.70;1.73;;;;;;;17.63;61.42;99872.94;5047553;28;20270;-77
2021/07/31 05:43:41;;;;;;;3.17;1.00;;;;;;;17.67;61.14;99895.56;5047000;28;20212;-78
2021/07/31 05:46:08;;;;;;;3.30;1.53;;;;;;;17.75;61.28;99889.00;5048632;28;20682;-76
2021/07/31 05:48:34;;;;;;;2.13;1.10;;;;;;;17.71;60.68;99895.41;5049702;28;20203;-77
2021/07/31 05:51:01;;;;;;;2.30;1.10;;;;;;;17.80;61.16;99894.88;5048887;28;20207;-78
2021/07/31 05:53:27;;;;;;;3.57;1.33;;;;;;;17.60;60.98;99904.78;5048852;28;20226;-76
2021/07/31 05:55:56;;;;;;;1.10;0.90;;;;;;;17.60;60.72;99885.44;5049092;28;20203;-77
2021/07/31 05:58:23;;;;;;;2.40;1.10;;;;;;;17.64;61.63;99871.13;5044108;28;20844;-76
2021/07/31 06:00:49;;;;;;;1.53;1.00;;;;;;;17.65;60.64;99888.69;5045998;28;20264;-76
2021/07/31 06:03:16;;;;;;;2.47;1.20;;;;;;;17.55;60.66;99912.13;5046597;28;20232;-77
2021/07/31 06:05:42;;;;;;;2.43;1.10;;;;;;;17.55;61.32;99887.53;5048049;28;20209;-76
2021/07/31 06:08:08;;;;;;;1.87;0.90;;;;;;;17.66;62.32;99841.09;5046673;28;20252;-77
2021/07/31 06:10:35;;;;;;;4.63;1.20;;;;;;;17.64;62.12;99850.91;5047827;28;20589;-76
2021/07/31 06:13:04;;;;;;;1.37;1.03;;;;;;;17.69;62.15;99847.13;5046515;28;20234;-77
2021/07/31 06:15:31;;;;;;;1.90;1.10;;;;;;;17.59;61.13;99876.69;5047550;28;20209;-76
2021/07/31 06:17:57;;;;;;;1.70;1.20;;;;;;;17.66;62.21;99829.69;5047787;28;20203;-76
2021/07/31 06:20:24;;;;;;;2.57;0.80;;;;;;;17.67;61.24;99861.25;5047691;28;20207;-76
2021/07/31 06:22:50;;;;;;;3.17;1.27;;;;;;;17.66;60.77;99880.69;5046407;28;20225;-77
2021/07/31 06:25:17;;;;;;;2.80;1.07;;;;;;;17.71;61.56;99847.91;5046290;28;20213;-76
2021/07/31 06:27:43;;;;;;;1.30;0.83;;;;;;;17.77;61.34;99855.47;5046278;28;20209;-76
2021/07/31 06:30:11;;;;;;;2.47;0.80;;;;;;;17.81;61.00;99868.38;5047336;28;20771;-77
2021/07/31 06:32:38;;;;;;;1.57;0.90;;;;;;;17.76;61.24;99874.84;5045215;28;20775;-77
2021/07/31 06:35:05;;;;;;;1.60;0.93;;;;;;;17.81;61.00;99870.19;5047268;28;20419;-76
2021/07/31 06:37:32;;;;;;;2.60;1.10;;;;;;;17.97;61.28;99875.44;5045958;28;20578;-76
2021/07/31 06:39:58;;;;;;;5.87;1.83;;;;;;;18.02;60.58;99907.72;5046185;28;20283;-76
2021/07/31 06:42:25;;;;;;;1.77;1.10;;;;;;;18.09;59.72;99942.53;5044134;28;20296;-77
2021/07/31 06:44:52;;;;;;;3.50;1.10;;;;;;;18.16;60.33;99935.97;5043986;28;20215;-75
2021/07/31 06:47:20;;;;;;;1.00;0.90;;;;;;;18.18;59.69;99942.88;5043542;28;20641;-76
2021/07/31 06:49:47;;;;;;;1.97;1.00;;;;;;;18.29;59.43;99950.16;5044450;28;20334;-76
2021/07/31 06:52:13;;;;;;;1.10;1.00;;;;;;;18.32;58.73;99994.91;5044253;28;20293;-77
2021/07/31 06:54:40;;;;;;;1.20;1.03;;;;;;;18.14;58.96;99993.34;5043644;28;20199;-77
2021/07/31 06:57:09;;;;;;;2.00;0.90;;;;;;;18.20;59.42;99977.13;5046260;28;20625;-77
2021/07/31 06:59:35;;;;;;;1.73;1.03;;;;;;;18.27;58.70;99989.03;5044740;28;20232;-77
2021/07/31 07:02:02;;;;;;;4.60;1.20;;;;;;;18.14;59.05;99991.53;5045060;28;20649;-78
2021/07/31 07:04:29;;;;;;;2.13;1.00;;;;;;;18.25;59.43;99964.47;5044514;28;20205;-76
2021/07/31 07:06:56;;;;;;;1.57;0.97;;;;;;;18.32;58.67;99973.75;5044318;28;20208;-77
2021/07/31 07:09:22;;;;;;;2.93;0.83;;;;;;;18.38;58.54;99997.19;5046618;28;20765;-77
2021/07/31 07:11:49;;;;;;;3.43;1.53;;;;;;;18.42;58.57;99982.00;5048134;28;20229;-76
2021/07/31 07:14:15;;;;;;;2.13;0.80;;;;;;;18.28;58.28;99987.25;5049010;28;20639;-76
2021/07/31 07:16:42;;;;;;;2.37;1.07;;;;;;;18.38;58.82;99970.75;5050610;28;20208;-77
2021/07/31 07:19:08;;;;;;;4.50;1.00;;;;;;;18.39;58.16;99992.75;5050042;28;20637;-77
2021/07/31 07:21:36;;;;;;;1.50;0.80;;;;;;;18.47;58.44;99972.00;5047976;28;20811;-76
2021/07/31 07:24:03;;;;;;;1.80;1.00;;;;;;;18.46;58.47;99988.81;5049159;28;20228;-77
2021/07/31 07:26:29;;;;;;;1.03;1.00;;;;;;;18.41;57.35;100023.44;5047787;28;20807;-75
2021/07/31 07:28:56;;;;;;;2.93;0.83;;;;;;;18.41;56.89;100046.34;5048044;28;20258;-76
2021/07/31 07:31:22;;;;;;;1.87;0.90;;;;;;;18.32;57.15;100041.63;5048579;28;20255;-76
2021/07/31 07:33:49;;;;;;;2.70;1.20;;;;;;;18.36;57.86;100014.06;5048783;28;21282;-76
2021/07/31 07:36:17;;;;;;;2.70;1.20;;;;;;;18.55;57.59;99984.75;5048806;28;20238;-76
2021/07/31 07:38:46;;;;;;;2.93;0.93;;;;;;;18.73;57.75;99998.66;5049444;28;20239;-76
2021/07/31 07:41:14;;;;;;;2.90;1.43;;;;;;;18.87;57.41;100035.78;5046991;28;20226;-77
2021/07/31 07:43:41;;;;;;;2.40;1.10;;;;;;;18.97;56.59;100049.28;5050074;28;20258;-77
2021/07/31 07:46:13;;;;;;;1.53;1.13;;;;;;;18.96;55.99;100096.03;5051948;28;20213;-75
2021/07/31 07:48:39;;;;;;;4.20;1.30;;;;;;;18.98;57.53;100065.03;5052535;28;20261;-76
2021/07/31 07:51:05;;;;;;;5.13;1.23;;;;;;;18.87;55.56;100054.28;5050181;28;20845;-76
2021/07/31 07:53:32;;;;;;;4.33;1.57;;;;;;;18.85;55.76;100093.19;5050458;28;20220;-76
2021/07/31 07:56:00;;;;;;;2.63;1.17;;;;;;;18.90;55.97;100084.97;5052255;28;20270;-77
2021/07/31 07:58:26;;;;;;;2.47;1.23;;;;;;;19.00;55.97;100076.38;5051291;28;21239;-76
2021/07/31 08:00:53;;;;;;;3.53;1.10;;;;;;;18.97;55.14;100124.19;5049621;28;20238;-76
2021/07/31 08:03:19;;;;;;;4.13;1.30;;;;;;;18.98;55.73;100083.56;5048676;28;20235;-76
2021/07/31 08:05:46;;;;;;;3.60;1.17;;;;;;;19.10;55.84;100075.84;5049516;28;20649;-75
2021/07/31 08:08:12;;;;;;;1.10;1.00;;;;;;;19.12;54.91;100140.09;5046950;28;20622;-76
2021/07/31 08:10:39;;;;;;;1.97;1.27;;;;;;;19.24;54.67;100155.25;5046763;28;20232;-75
2021/07/31 08:13:07;;;;;;;5.87;1.47;;;;;;;19.36;55.45;100104.22;5046474;28;20290;-76
2021/07/31 08:15:33;;;;;;;1.20;0.80;;;;;;;19.31;54.88;100166.34;5047999;28;20213;-75
2021/07/31 08:17:59;;;;;;;2.00;1.53;;;;;;;19.14;54.94;100149.66;5046851;28;20205;-77
2021/07/31 08:20:26;;;;;;;2.37;1.03;;;;;;;18.96;55.60;100130.41;5047264;28;20235;-76
2021/07/31 08:22:53;;;;;;;3.33;1.27;;;;;;;19.04;56.30;100099.06;5045972;28;20650;-76
2021/07/31 08:25:19;;;;;;;2.87;0.93;;;;;;;19.03;55.11;100155.59;5048776;28;20216;-77
2021/07/31 08:27:46;;;;;;;2.97;1.27;;;;;;;18.86;55.32;100145.13;5047825;28;20220;-76
2021/07/31 08:30:14;;;;;;;2.10;1.27;;;;;;;19.01;55.71;100120.44;5048428;28;20210;-76
2021/07/31 08:32:44;;;;;;;1.97;1.10;;;;;;;18.81;55.51;100139.25;5047361;28;20263;-76
2021/07/31 08:35:11;;;;;;;2.53;1.30;;;;;;;18.97;56.23;100120.72;5048746;28;20210;-76
2021/07/31 08:37:38;;;;;;;4.10;1.00;;;;;;;19.02;54.65;100163.59;5049117;28;20626;-77
2021/07/31 08:40:07;;;;;;;2.80;1.23;;;;;;;18.98;55.51;100149.69;5048151;28;20633;-76
2021/07/31 08:42:35;;;;;;;2.90;1.10;;;;;;;18.94;55.67;100126.16;5047194;28;20231;-77
2021/07/31 08:45:03;;;;;;;4.17;1.20;;;;;;;18.93;56.58;100108.59;5047673;28;20617;-77
2021/07/31 08:47:32;;;;;;;2.20;1.07;;;;;;;18.83;57.08;100085.34;5049259;28;20212;-77
2021/07/31 08:49:59;;;;;;;2.63;0.97;;;;;;;18.77;57.16;100063.66;5048622;28;20259;-77
2021/07/31 08:52:28;;;;;;;2.20;0.97;;;;;;;18.83;57.17;100082.69;5047058;28;20248;-76
2021/07/31 08:54:54;;;;;;;6.03;1.30;;;;;;;18.77;57.36;100079.50;5044597;28;20612;-75
2021/07/31 08:57:21;;;;;;;5.00;1.70;;;;;;;18.92;57.72;100064.56;5044727;28;20216;-76
2021/07/31 08:59:47;;;;;;;3.60;1.40;;;;;;;18.93;57.99;100064.50;5047135;28;20231;-76
2021/07/31 09:02:14;;;;;;;4.87;1.63;;;;;;;18.73;57.87;100078.00;5046340;28;20266;-76
2021/07/31 09:04:44;;;;;;;3.23;1.40;;;;;;;18.57;58.58;100051.59;5047306;28;20216;-76
2021/07/31 09:07:15;;;;;;;9.80;1.40;;;;;;;18.59;59.38;100010.06;5046092;28;20586;-76
2021/07/31 09:09:42;;;;;;;2.00;1.13;;;;;;;18.55;59.30;100020.00;5046823;28;20220;-77
2021/07/31 09:12:10;;;;;;;4.73;1.33;;;;;;;18.58;59.64;100006.56;5046427;28;20282;-76
2021/07/31 09:14:45;;;;;;;1.87;1.20;;;;;;;18.68;59.46;99998.94;5047562;28;20228;-77
2021/07/31 09:17:23;;;;;;;1.47;1.07;;;;;;;18.90;59.53;100001.19;5046692;28;20229;-76
2021/07/31 09:19:50;;;;;;;3.10;1.20;;;;;;;19.05;58.21;100036.44;5045580;28;20270;-76
2021/07/31 09:22:17;;;;;;;2.53;1.37;;;;;;;19.12;57.69;100080.09;5043506;28;20841;-74
2021/07/31 09:24:43;;;;;;;2.70;1.30;;;;;;;19.38;58.03;100057.31;5043752;28;20728;-76
2021/07/31 09:27:25;;;;;;;4.33;1.37;;;;;;;19.30;58.24;100032.28;5044115;28;20617;-76
2021/07/31 09:30:00;;;;;;;10.90;1.40;;;;;;;19.35;57.73;100060.19;5044711;28;20670;-76
2021/07/31 09:32:37;;;;;;;2.10;1.40;;;;;;;19.29;57.91;100065.00;5044047;28;20239;-74
2021/07/31 09:35:19;;;;;;;2.40;1.40;;;;;;;19.04;57.57;100071.78;5044862;28;20201;-76
2021/07/31 09:37:48;;;;;;;2.37;1.30;;;;;;;19.20;58.19;100046.06;5044702;28;20266;-76
2021/07/31 09:40:14;;;;;;;1.57;1.10;;;;;;;19.24;58.20;100066.13;5044621;28;20236;-76
2021/07/31 09:42:44;;;;;;;2.83;1.27;;;;;;;19.16;57.90;100086.06;5043857;28;20231;-74
2021/07/31 09:45:12;;;;;;;5.97;1.70;;;;;;;19.23;58.55;100045.06;5044762;28;20296;-76
2021/07/31 09:47:57;;;;;;;1.53;1.43;;;;;;;19.27;57.54;100080.13;5044687;28;20675;-75
2021/07/31 09:50:37;;;;;;;6.30;1.97;;;;;;;19.40;57.24;100089.84;5045134;28;20209;-76
2021/07/31 09:53:09;;;;;;;4.20;1.33;;;;;;;19.43;57.62;100089.66;5043551;28;20255;-76
2021/07/31 09:55:43;;;;;;;3.37;1.50;;;;;;;19.34;57.18;100105.25;5044537;28;20216;-76
2021/07/31 09:58:13;;;;;;;3.03;1.80;;;;;;;19.40;58.05;100067.81;5044450;28;20205;-76
2021/07/31 10:00:41;;;;;;;2.50;1.60;;;;;;;19.54;57.07;100098.75;5044456;28;20242;-76
2021/07/31 10:03:09;;;;;;;2.53;1.40;;;;;;;19.41;56.24;100119.84;5043422;28;20791;-76
2021/07/31 10:05:37;;;;;;;1.53;1.10;;;;;;;19.33;56.89;100114.16;5044470;28;20209;-76
2021/07/31 10:08:05;;;;;;;2.00;1.30;;;;;;;19.52;57.12;100088.25;5050118;28;20206;-77
2021/07/31 10:10:32;;;;;;;6.33;2.03;;;;;;;19.40;56.89;100124.25;5049987;28;20246;-75
2021/07/31 10:12:59;;;;;;;3.03;1.40;;;;;;;19.50;57.07;100110.47;5045154;28;20221;-76
2021/07/31 10:15:26;;;;;;;3.57;1.53;;;;;;;19.59;55.60;100153.13;5045119;28;20247;-75
2021/07/31 10:17:53;;;;;;;1.43;1.33;;;;;;;19.75;55.85;100158.34;5045415;28;20210;-76
2021/07/31 10:20:24;;;;;;;4.10;1.60;;;;;;;19.96;55.77;100156.19;5045184;28;20229;-76
2021/07/31 10:22:52;;;;;;;3.70;1.23;;;;;;;20.11;55.46;100169.41;5043865;28;20315;-76
2021/07/31 10:25:18;;;;;;;10.47;1.50;;;;;;;20.06;55.37;100190.91;5044228;28;20226;-75
2021/07/31 10:27:46;;;;;;;2.27;1.60;;;;;;;20.16;55.45;100169.97;5044210;28;20345;-76
2021/07/31 10:30:30;;;;;;;3.20;1.67;;;;;;;20.08;54.76;100189.00;5044459;28;20267;-77
2021/07/31 10:32:57;;;;;;;2.57;1.20;;;;;;;20.23;55.46;100166.81;5044228;28;20762;-76
2021/07/31 10:35:31;;;;;;;4.60;1.40;;;;;;;20.28;54.75;100208.97;5044867;28;20215;-76
2021/07/31 10:38:00;;;;;;;2.13;1.30;;;;;;;20.26;54.18;100204.69;5044693;28;20215;-77
2021/07/31 10:40:57;;;;;;;2.43;1.50;;;;;;;20.09;54.71;100213.69;5043461;28;20236;-76
2021/07/31 10:43:27;;;;;;;3.27;1.33;;;;;;;20.11;54.83;100201.22;5043092;28;20237;-76
2021/07/31 10:46:24;;;;;;;1.67;1.10;;;;;;;19.87;54.58;100206.22;5047923;28;20243;-76
2021/07/31 10:48:51;;;;;;;2.63;1.20;;;;;;;19.92;55.68;100169.69;5048515;28;20307;-76
2021/07/31 10:51:40;;;;;;;1.47;1.20;;;;;;;20.26;55.68;100139.28;5048402;28;20216;-76
2021/07/31 10:54:08;;;;;;;2.93;1.13;;;;;;;20.54;55.77;100164.03;5047287;28;20239;-77
2021/07/31 10:56:57;;;;;;;3.80;1.27;;;;;;;20.39;53.29;100278.03;5048841;28;20213;-76
2021/07/31 10:59:23;;;;;;;2.00;1.10;;;;;;;20.34;54.47;100223.63;5048853;28;20623;-76
2021/07/31 11:01:50;;;;;;;2.07;1.30;;;;;;;20.58;54.76;100192.03;5048195;28;20233;-76
2021/07/31 11:04:54;;;;;;;2.37;1.17;;;;;;;20.69;52.99;100247.91;5049011;28;20218;-76
2021/07/31 11:07:25;;;;;;;4.37;1.00;;;;;;;20.75;53.45;100260.81;5048366;28;20622;-76
2021/07/31 11:10:24;;;;;;;2.70;1.23;;;;;;;20.94;53.32;100249.84;5047814;28;20200;-77
2021/07/31 11:12:52;;;;;;;2.30;1.40;;;;;;;20.98;51.68;100328.28;5042758;28;20242;-77
2021/07/31 11:15:18;;;;;;;1.23;1.00;;;;;;;20.91;52.01;100321.69;5050454;28;20222;-76
2021/07/31 11:17:44;;;;;;;2.00;1.10;;;;;;;21.11;53.36;100279.72;5047907;28;20218;-76
2021/07/31 11:20:25;;;;;;;2.33;1.00;;;;;;;20.67;51.76;100332.03;5047177;28;20799;-76
2021/07/31 11:22:53;;;;;;;2.83;1.27;;;;;;;20.86;53.21;100276.00;5046824;28;20235;-76
2021/07/31 11:25:20;;;;;;;9.50;1.83;;;;;;;20.74;51.96;100333.38;5046770;28;20205;-76
2021/07/31 11:27:55;;;;;;;1.60;1.30;;;;;;;20.52;53.00;100306.47;5046820;28;20203;-76
2021/07/31 11:30:22;;;;;;;4.43;1.50;;;;;;;20.30;53.73;100275.97;5047991;28;20744;-77
2021/07/31 11:32:48;;;;;;;4.60;1.23;;;;;;;20.26;53.92;100253.25;5047279;28;20651;-76
2021/07/31 11:35:26;;;;;;;2.70;1.10;;;;;;;20.59;53.80;100236.19;5048020;28;20224;-77